sensor_id;sensor_type;location;lat;lon;timestamp;temperature;humidity
20803;DHT22;10562;-33.856;151.182;2023-08-17T00:01:50;14.00;99.90
20803;DHT22;10562;-33.856;151.182;2023-08-17T00:04:21;14.10;99.90
20803;DHT22;10562;-33.856;151.182;2023-08-17T00:06:52;14.10;99.90
20803;DHT22;10562;-33.856;151.182;2023-08-17T00:09:23;14.30;99.90
20803;DHT22;10562;-33.856;151.182;2023-08-17T00:11:56;14.50;99.90
20803;DHT22;10562;-33.856;151.182;2023-08-17T00:14:26;14.70;99.90
20803;DHT22;10562;-33.856;151.182;2023-08-17T00:16:58;14.80;99.90
20803;DHT22;10562;-33.856;151.182;2023-08-17T00:19:30;14.90;99.90
20803;DHT22;10562;-33.856;151.182;2023-08-17T00:22:01;14.90;99.90
20803;DHT22;10562;-33.856;151.182;2023-08-17T00:24:32;15.00;99.90
20803;DHT22;10562;-33.856;151.182;2023-08-17T00:27:05;15.10;99.90
20803;DHT22;10562;-33.856;151.182;2023-08-17T00:29:36;15.20;99.90
20803;DHT22;10562;-33.856;151.182;2023-08-17T00:32:07;15.40;99.90
20803;DHT22;10562;-33.856;151.182;2023-08-17T00:34:38;15.40;99.90
20803;DHT22;10562;-33.856;151.182;2023-08-17T00:37:08;15.50;99.90
20803;DHT22;10562;-33.856;151.182;2023-08-17T00:39:39;15.70;99.90
20803;DHT22;10562;-33.856;151.182;2023-08-17T00:42:12;15.80;99.90
20803;DHT22;10562;-33.856;151.182;2023-08-17T00:44:42;16.00;99.90
20803;DHT22;10562;-33.856;151.182;2023-08-17T00:47:13;16.20;99.90
20803;DHT22;10562;-33.856;151.182;2023-08-17T00:49:45;16.20;99.90
20803;DHT22;10562;-33.856;151.182;2023-08-17T00:52:16;16.20;99.90
20803;DHT22;10562;-33.856;151.182;2023-08-17T00:54:47;16.40;99.90
20803;DHT22;10562;-33.856;151.182;2023-08-17T00:57:20;16.40;99.90
20803;DHT22;10562;-33.856;151.182;2023-08-17T00:59:51;16.60;99.90
20803;DHT22;10562;-33.856;151.182;2023-08-17T01:02:22;16.60;99.90
20803;DHT22;10562;-33.856;151.182;2023-08-17T01:04:53;16.80;99.90
20803;DHT22;10562;-33.856;151.182;2023-08-17T01:07:24;16.80;99.90
20803;DHT22;10562;-33.856;151.182;2023-08-17T01:09:55;16.90;99.90
20803;DHT22;10562;-33.856;151.182;2023-08-17T01:12:32;17.10;99.90
20803;DHT22;10562;-33.856;151.182;2023-08-17T01:15:10;17.30;99.90
20803;DHT22;10562;-33.856;151.182;2023-08-17T01:17:47;17.40;99.90
20803;DHT22;10562;-33.856;151.182;2023-08-17T01:20:19;17.40;99.90
20803;DHT22;10562;-33.856;151.182;2023-08-17T01:22:51;17.50;99.90
20803;DHT22;10562;-33.856;151.182;2023-08-17T01:25:26;17.70;99.90
20803;DHT22;10562;-33.856;151.182;2023-08-17T01:27:57;17.80;99.90
20803;DHT22;10562;-33.856;151.182;2023-08-17T01:30:28;17.90;99.90
20803;DHT22;10562;-33.856;151.182;2023-08-17T01:33:06;18.00;99.90
20803;DHT22;10562;-33.856;151.182;2023-08-17T01:35:42;18.00;99.90
20803;DHT22;10562;-33.856;151.182;2023-08-17T01:38:18;18.10;99.90
20803;DHT22;10562;-33.856;151.182;2023-08-17T01:40:53;18.10;99.90
20803;DHT22;10562;-33.856;151.182;2023-08-17T01:43:24;18.30;99.90
20803;DHT22;10562;-33.856;151.182;2023-08-17T01:45:56;18.40;99.90
20803;DHT22;10562;-33.856;151.182;2023-08-17T01:48:27;18.50;99.90
20803;DHT22;10562;-33.856;151.182;2023-08-17T01:50:57;18.40;99.90
20803;DHT22;10562;-33.856;151.182;2023-08-17T01:53:28;18.60;99.90
20803;DHT22;10562;-33.856;151.182;2023-08-17T01:56:01;18.70;99.90
20803;DHT22;10562;-33.856;151.182;2023-08-17T01:58:32;18.80;99.90
20803;DHT22;10562;-33.856;151.182;2023-08-17T02:01:03;18.90;99.90
20803;DHT22;10562;-33.856;151.182;2023-08-17T02:03:34;19.10;99.90
20803;DHT22;10562;-33.856;151.182;2023-08-17T02:06:05;19.10;99.90
20803;DHT22;10562;-33.856;151.182;2023-08-17T02:08:35;19.20;99.90
20803;DHT22;10562;-33.856;151.182;2023-08-17T02:11:08;19.20;99.90
20803;DHT22;10562;-33.856;151.182;2023-08-17T02:13:39;19.20;99.90
20803;DHT22;10562;-33.856;151.182;2023-08-17T02:16:10;19.30;99.90
20803;DHT22;10562;-33.856;151.182;2023-08-17T02:18:41;19.30;99.90
20803;DHT22;10562;-33.856;151.182;2023-08-17T02:21:11;19.40;99.90
20803;DHT22;10562;-33.856;151.182;2023-08-17T02:23:42;19.50;99.90
20803;DHT22;10562;-33.856;151.182;2023-08-17T02:26:15;19.60;99.90
20803;DHT22;10562;-33.856;151.182;2023-08-17T02:28:46;19.70;99.90
20803;DHT22;10562;-33.856;151.182;2023-08-17T02:31:16;19.80;99.90
20803;DHT22;10562;-33.856;151.182;2023-08-17T02:33:47;19.80;99.90
20803;DHT22;10562;-33.856;151.182;2023-08-17T02:36:18;19.80;99.90
20803;DHT22;10562;-33.856;151.182;2023-08-17T02:38:49;19.80;99.90
20803;DHT22;10562;-33.856;151.182;2023-08-17T02:41:21;19.80;99.90
20803;DHT22;10562;-33.856;151.182;2023-08-17T02:43:52;19.80;99.90
20803;DHT22;10562;-33.856;151.182;2023-08-17T02:46:23;19.80;99.90
20803;DHT22;10562;-33.856;151.182;2023-08-17T02:48:54;19.80;99.90
20803;DHT22;10562;-33.856;151.182;2023-08-17T02:51:24;19.90;99.90
20803;DHT22;10562;-33.856;151.182;2023-08-17T02:53:55;20.00;99.90
20803;DHT22;10562;-33.856;151.182;2023-08-17T02:56:28;20.20;99.90
20803;DHT22;10562;-33.856;151.182;2023-08-17T02:58:58;20.40;99.90
20803;DHT22;10562;-33.856;151.182;2023-08-17T03:01:29;20.40;99.90
20803;DHT22;10562;-33.856;151.182;2023-08-17T03:04:00;20.60;99.90
20803;DHT22;10562;-33.856;151.182;2023-08-17T03:06:31;20.70;99.90
20803;DHT22;10562;-33.856;151.182;2023-08-17T03:09:02;20.80;99.90
20803;DHT22;10562;-33.856;151.182;2023-08-17T03:11:35;20.70;99.90
20803;DHT22;10562;-33.856;151.182;2023-08-17T03:14:06;20.80;99.90
20803;DHT22;10562;-33.856;151.182;2023-08-17T03:16:37;20.70;99.90
20803;DHT22;10562;-33.856;151.182;2023-08-17T03:19:09;20.80;99.90
20803;DHT22;10562;-33.856;151.182;2023-08-17T03:21:40;20.90;99.90
20803;DHT22;10562;-33.856;151.182;2023-08-17T03:24:10;20.90;99.90
20803;DHT22;10562;-33.856;151.182;2023-08-17T03:26:43;20.90;99.90
20803;DHT22;10562;-33.856;151.182;2023-08-17T03:29:14;20.70;99.90
20803;DHT22;10562;-33.856;151.182;2023-08-17T03:31:45;20.60;99.90
20803;DHT22;10562;-33.856;151.182;2023-08-17T03:34:17;20.40;99.90
20803;DHT22;10562;-33.856;151.182;2023-08-17T03:36:48;20.50;99.90
20803;DHT22;10562;-33.856;151.182;2023-08-17T03:39:18;20.60;99.90
20803;DHT22;10562;-33.856;151.182;2023-08-17T03:41:51;20.70;99.90
20803;DHT22;10562;-33.856;151.182;2023-08-17T03:44:22;20.80;99.90
20803;DHT22;10562;-33.856;151.182;2023-08-17T03:46:53;21.00;99.90
20803;DHT22;10562;-33.856;151.182;2023-08-17T03:49:23;21.10;99.90
20803;DHT22;10562;-33.856;151.182;2023-08-17T03:51:54;21.10;99.90
20803;DHT22;10562;-33.856;151.182;2023-08-17T03:54:25;21.20;99.90
20803;DHT22;10562;-33.856;151.182;2023-08-17T03:56:58;21.20;99.90
20803;DHT22;10562;-33.856;151.182;2023-08-17T03:59:28;21.30;99.90
20803;DHT22;10562;-33.856;151.182;2023-08-17T04:01:59;21.40;98.60
20803;DHT22;10562;-33.856;151.182;2023-08-17T04:04:30;21.30;99.50
20803;DHT22;10562;-33.856;151.182;2023-08-17T04:07:01;21.30;98.70
20803;DHT22;10562;-33.856;151.182;2023-08-17T04:09:32;21.30;99.30
20803;DHT22;10562;-33.856;151.182;2023-08-17T04:12:06;21.20;96.00
20803;DHT22;10562;-33.856;151.182;2023-08-17T04:14:37;21.20;95.00
20803;DHT22;10562;-33.856;151.182;2023-08-17T04:17:07;21.20;95.60
20803;DHT22;10562;-33.856;151.182;2023-08-17T04:19:38;21.40;95.80
20803;DHT22;10562;-33.856;151.182;2023-08-17T04:22:12;21.40;92.40
20803;DHT22;10562;-33.856;151.182;2023-08-17T04:24:43;21.50;89.40
20803;DHT22;10562;-33.856;151.182;2023-08-17T04:27:15;21.60;90.40
20803;DHT22;10562;-33.856;151.182;2023-08-17T04:29:46;21.70;90.50
20803;DHT22;10562;-33.856;151.182;2023-08-17T04:32:17;21.60;89.20
20803;DHT22;10562;-33.856;151.182;2023-08-17T04:34:48;21.60;89.40
20803;DHT22;10562;-33.856;151.182;2023-08-17T04:37:18;21.60;91.70
20803;DHT22;10562;-33.856;151.182;2023-08-17T04:39:49;21.50;96.60
20803;DHT22;10562;-33.856;151.182;2023-08-17T04:42:22;21.60;98.60
20803;DHT22;10562;-33.856;151.182;2023-08-17T04:44:53;21.40;99.90
20803;DHT22;10562;-33.856;151.182;2023-08-17T04:47:23;21.30;99.90
20803;DHT22;10562;-33.856;151.182;2023-08-17T04:49:54;21.20;99.90
20803;DHT22;10562;-33.856;151.182;2023-08-17T04:52:25;21.10;99.90
20803;DHT22;10562;-33.856;151.182;2023-08-17T04:54:56;21.00;99.90
20803;DHT22;10562;-33.856;151.182;2023-08-17T04:57:29;20.90;99.90
20803;DHT22;10562;-33.856;151.182;2023-08-17T04:59:59;20.80;99.90
20803;DHT22;10562;-33.856;151.182;2023-08-17T05:02:31;20.70;99.90
20803;DHT22;10562;-33.856;151.182;2023-08-17T05:05:04;20.40;99.90
20803;DHT22;10562;-33.856;151.182;2023-08-17T05:07:35;20.30;99.90
20803;DHT22;10562;-33.856;151.182;2023-08-17T05:10:06;20.20;99.90
20803;DHT22;10562;-33.856;151.182;2023-08-17T05:12:40;20.20;99.90
20803;DHT22;10562;-33.856;151.182;2023-08-17T05:15:11;20.10;99.90
20803;DHT22;10562;-33.856;151.182;2023-08-17T05:17:42;20.00;99.90
20803;DHT22;10562;-33.856;151.182;2023-08-17T05:20:13;20.10;99.90
20803;DHT22;10562;-33.856;151.182;2023-08-17T05:22:44;20.00;99.90
20803;DHT22;10562;-33.856;151.182;2023-08-17T05:25:15;19.90;99.90
20803;DHT22;10562;-33.856;151.182;2023-08-17T05:27:47;19.80;99.90
20803;DHT22;10562;-33.856;151.182;2023-08-17T05:30:19;19.70;99.90
20803;DHT22;10562;-33.856;151.182;2023-08-17T05:32:49;19.60;99.90
20803;DHT22;10562;-33.856;151.182;2023-08-17T05:35:20;19.50;99.90
20803;DHT22;10562;-33.856;151.182;2023-08-17T05:37:51;19.30;99.90
20803;DHT22;10562;-33.856;151.182;2023-08-17T05:40:22;19.30;99.90
20803;DHT22;10562;-33.856;151.182;2023-08-17T05:42:54;19.30;99.90
20803;DHT22;10562;-33.856;151.182;2023-08-17T05:45:25;19.10;99.90
20803;DHT22;10562;-33.856;151.182;2023-08-17T05:47:56;18.90;99.90
20803;DHT22;10562;-33.856;151.182;2023-08-17T05:50:27;18.70;99.90
20803;DHT22;10562;-33.856;151.182;2023-08-17T05:52:58;18.50;99.90
20803;DHT22;10562;-33.856;151.182;2023-08-17T05:55:29;18.30;99.90
20803;DHT22;10562;-33.856;151.182;2023-08-17T05:58:01;18.20;99.90
20803;DHT22;10562;-33.856;151.182;2023-08-17T06:00:32;18.20;99.90
20803;DHT22;10562;-33.856;151.182;2023-08-17T06:03:03;18.20;99.90
20803;DHT22;10562;-33.856;151.182;2023-08-17T06:05:35;18.10;99.90
20803;DHT22;10562;-33.856;151.182;2023-08-17T06:08:06;18.10;99.90
20803;DHT22;10562;-33.856;151.182;2023-08-17T06:10:37;18.00;99.90
20803;DHT22;10562;-33.856;151.182;2023-08-17T06:13:10;18.00;99.90
20803;DHT22;10562;-33.856;151.182;2023-08-17T06:15:40;17.80;99.90
20803;DHT22;10562;-33.856;151.182;2023-08-17T06:18:11;17.70;99.90
20803;DHT22;10562;-33.856;151.182;2023-08-17T06:20:42;17.60;99.90
20803;DHT22;10562;-33.856;151.182;2023-08-17T06:23:14;17.60;99.90
20803;DHT22;10562;-33.856;151.182;2023-08-17T06:25:45;17.70;99.90
20803;DHT22;10562;-33.856;151.182;2023-08-17T06:28:17;17.70;99.90
20803;DHT22;10562;-33.856;151.182;2023-08-17T06:30:51;17.70;99.90
20803;DHT22;10562;-33.856;151.182;2023-08-17T06:33:24;17.70;99.90
20803;DHT22;10562;-33.856;151.182;2023-08-17T06:35:57;17.60;99.90
20803;DHT22;10562;-33.856;151.182;2023-08-17T06:38:33;17.40;99.90
20803;DHT22;10562;-33.856;151.182;2023-08-17T06:41:17;17.10;99.90
20803;DHT22;10562;-33.856;151.182;2023-08-17T06:43:50;17.00;99.90
20803;DHT22;10562;-33.856;151.182;2023-08-17T06:46:21;16.90;99.90
20803;DHT22;10562;-33.856;151.182;2023-08-17T06:48:52;16.80;99.90
20803;DHT22;10562;-33.856;151.182;2023-08-17T06:51:23;16.70;99.90
20803;DHT22;10562;-33.856;151.182;2023-08-17T06:53:53;16.60;99.90
20803;DHT22;10562;-33.856;151.182;2023-08-17T06:56:24;16.50;99.90
20803;DHT22;10562;-33.856;151.182;2023-08-17T06:58:57;16.40;99.90
20803;DHT22;10562;-33.856;151.182;2023-08-17T07:01:27;16.30;99.90
20803;DHT22;10562;-33.856;151.182;2023-08-17T07:03:58;16.20;99.90
20803;DHT22;10562;-33.856;151.182;2023-08-17T07:06:29;16.10;99.90
20803;DHT22;10562;-33.856;151.182;2023-08-17T07:09:01;15.90;99.90
20803;DHT22;10562;-33.856;151.182;2023-08-17T07:11:32;15.90;99.90
20803;DHT22;10562;-33.856;151.182;2023-08-17T07:14:05;15.80;99.90
20803;DHT22;10562;-33.856;151.182;2023-08-17T07:16:36;15.70;99.90
20803;DHT22;10562;-33.856;151.182;2023-08-17T07:19:07;15.70;99.90
20803;DHT22;10562;-33.856;151.182;2023-08-17T07:21:39;15.60;99.90
20803;DHT22;10562;-33.856;151.182;2023-08-17T07:24:16;15.60;99.90
20803;DHT22;10562;-33.856;151.182;2023-08-17T07:26:47;15.60;99.90
20803;DHT22;10562;-33.856;151.182;2023-08-17T07:29:20;15.50;99.90
20803;DHT22;10562;-33.856;151.182;2023-08-17T07:31:50;15.50;99.90
20803;DHT22;10562;-33.856;151.182;2023-08-17T07:34:22;15.40;99.90
20803;DHT22;10562;-33.856;151.182;2023-08-17T07:36:52;15.40;99.90
20803;DHT22;10562;-33.856;151.182;2023-08-17T07:39:25;15.30;99.90
20803;DHT22;10562;-33.856;151.182;2023-08-17T07:41:56;15.30;99.90
20803;DHT22;10562;-33.856;151.182;2023-08-17T07:44:28;15.30;99.90
20803;DHT22;10562;-33.856;151.182;2023-08-17T07:47:00;15.30;99.90
20803;DHT22;10562;-33.856;151.182;2023-08-17T07:49:31;15.30;99.90
20803;DHT22;10562;-33.856;151.182;2023-08-17T07:52:02;15.30;99.90
20803;DHT22;10562;-33.856;151.182;2023-08-17T07:54:33;15.20;99.90
20803;DHT22;10562;-33.856;151.182;2023-08-17T07:57:04;15.20;99.90
20803;DHT22;10562;-33.856;151.182;2023-08-17T07:59:36;15.20;99.90
20803;DHT22;10562;-33.856;151.182;2023-08-17T08:02:07;15.10;99.90
20803;DHT22;10562;-33.856;151.182;2023-08-17T08:04:38;15.10;99.90
20803;DHT22;10562;-33.856;151.182;2023-08-17T08:07:09;15.00;99.90
20803;DHT22;10562;-33.856;151.182;2023-08-17T08:09:40;15.00;99.90
20803;DHT22;10562;-33.856;151.182;2023-08-17T08:12:11;15.10;99.90
20803;DHT22;10562;-33.856;151.182;2023-08-17T08:14:43;15.00;99.90
20803;DHT22;10562;-33.856;151.182;2023-08-17T08:17:14;14.90;99.90
20803;DHT22;10562;-33.856;151.182;2023-08-17T08:19:45;14.90;99.90
20803;DHT22;10562;-33.856;151.182;2023-08-17T08:22:16;14.90;99.90
20803;DHT22;10562;-33.856;151.182;2023-08-17T08:24:46;14.90;99.90
20803;DHT22;10562;-33.856;151.182;2023-08-17T08:27:17;14.90;99.90
20803;DHT22;10562;-33.856;151.182;2023-08-17T08:29:50;14.90;99.90
20803;DHT22;10562;-33.856;151.182;2023-08-17T08:32:21;14.90;99.90
20803;DHT22;10562;-33.856;151.182;2023-08-17T08:34:51;14.90;99.90
20803;DHT22;10562;-33.856;151.182;2023-08-17T08:37:22;14.90;99.90
20803;DHT22;10562;-33.856;151.182;2023-08-17T08:39:54;14.90;99.90
20803;DHT22;10562;-33.856;151.182;2023-08-17T08:42:26;15.00;99.90
20803;DHT22;10562;-33.856;151.182;2023-08-17T08:44:59;14.90;99.90
20803;DHT22;10562;-33.856;151.182;2023-08-17T08:47:30;15.00;99.90
20803;DHT22;10562;-33.856;151.182;2023-08-17T08:50:02;15.10;99.90
20803;DHT22;10562;-33.856;151.182;2023-08-17T08:52:34;15.10;99.90
20803;DHT22;10562;-33.856;151.182;2023-08-17T08:55:11;15.20;99.90
20803;DHT22;10562;-33.856;151.182;2023-08-17T08:57:42;15.20;99.90
20803;DHT22;10562;-33.856;151.182;2023-08-17T09:00:16;15.20;99.90
20803;DHT22;10562;-33.856;151.182;2023-08-17T09:02:47;15.20;99.90
20803;DHT22;10562;-33.856;151.182;2023-08-17T09:05:19;15.20;99.90
20803;DHT22;10562;-33.856;151.182;2023-08-17T09:07:50;15.20;99.90
20803;DHT22;10562;-33.856;151.182;2023-08-17T09:10:22;15.30;99.90
20803;DHT22;10562;-33.856;151.182;2023-08-17T09:12:53;15.40;99.90
20803;DHT22;10562;-33.856;151.182;2023-08-17T09:15:26;15.40;99.90
20803;DHT22;10562;-33.856;151.182;2023-08-17T09:17:57;15.50;99.90
20803;DHT22;10562;-33.856;151.182;2023-08-17T09:20:40;15.40;99.90
20803;DHT22;10562;-33.856;151.182;2023-08-17T09:23:13;15.50;99.90
20803;DHT22;10562;-33.856;151.182;2023-08-17T09:25:44;15.50;99.90
20803;DHT22;10562;-33.856;151.182;2023-08-17T09:28:17;15.50;99.90
20803;DHT22;10562;-33.856;151.182;2023-08-17T09:30:53;15.50;99.90
20803;DHT22;10562;-33.856;151.182;2023-08-17T09:33:25;15.50;99.90
20803;DHT22;10562;-33.856;151.182;2023-08-17T09:35:57;15.50;99.90
20803;DHT22;10562;-33.856;151.182;2023-08-17T09:38:28;15.50;99.90
20803;DHT22;10562;-33.856;151.182;2023-08-17T09:40:59;15.60;99.90
20803;DHT22;10562;-33.856;151.182;2023-08-17T09:43:30;15.60;99.90
20803;DHT22;10562;-33.856;151.182;2023-08-17T09:46:04;15.60;99.90
20803;DHT22;10562;-33.856;151.182;2023-08-17T09:48:35;15.60;99.90
20803;DHT22;10562;-33.856;151.182;2023-08-17T09:51:07;15.60;99.90
20803;DHT22;10562;-33.856;151.182;2023-08-17T09:53:38;15.60;99.90
20803;DHT22;10562;-33.856;151.182;2023-08-17T09:56:09;15.60;99.90
20803;DHT22;10562;-33.856;151.182;2023-08-17T09:58:40;15.50;99.90
20803;DHT22;10562;-33.856;151.182;2023-08-17T10:01:14;15.50;99.90
20803;DHT22;10562;-33.856;151.182;2023-08-17T10:03:45;15.50;99.90
20803;DHT22;10562;-33.856;151.182;2023-08-17T10:06:22;15.60;99.90
20803;DHT22;10562;-33.856;151.182;2023-08-17T10:08:58;15.60;99.90
20803;DHT22;10562;-33.856;151.182;2023-08-17T10:11:31;15.60;99.90
20803;DHT22;10562;-33.856;151.182;2023-08-17T10:14:07;15.60;99.90
20803;DHT22;10562;-33.856;151.182;2023-08-17T10:16:45;15.70;99.90
20803;DHT22;10562;-33.856;151.182;2023-08-17T10:19:21;15.70;99.90
20803;DHT22;10562;-33.856;151.182;2023-08-17T10:22:00;15.60;99.90
20803;DHT22;10562;-33.856;151.182;2023-08-17T10:24:35;15.60;99.90
20803;DHT22;10562;-33.856;151.182;2023-08-17T10:27:06;15.60;99.90
20803;DHT22;10562;-33.856;151.182;2023-08-17T10:29:40;15.60;99.90
20803;DHT22;10562;-33.856;151.182;2023-08-17T10:32:13;15.60;99.90
20803;DHT22;10562;-33.856;151.182;2023-08-17T10:34:45;15.60;99.90
20803;DHT22;10562;-33.856;151.182;2023-08-17T10:37:16;15.60;99.90
20803;DHT22;10562;-33.856;151.182;2023-08-17T10:39:49;15.50;99.90
20803;DHT22;10562;-33.856;151.182;2023-08-17T10:42:31;15.50;99.90
20803;DHT22;10562;-33.856;151.182;2023-08-17T10:45:24;15.60;99.90
20803;DHT22;10562;-33.856;151.182;2023-08-17T10:48:26;15.70;99.90
20803;DHT22;10562;-33.856;151.182;2023-08-17T10:51:04;15.60;99.90
20803;DHT22;10562;-33.856;151.182;2023-08-17T10:53:38;15.60;99.90
20803;DHT22;10562;-33.856;151.182;2023-08-17T10:56:13;15.60;99.90
20803;DHT22;10562;-33.856;151.182;2023-08-17T10:58:44;15.60;99.90
20803;DHT22;10562;-33.856;151.182;2023-08-17T11:01:16;15.60;99.90
20803;DHT22;10562;-33.856;151.182;2023-08-17T11:04:19;15.50;99.90
20803;DHT22;10562;-33.856;151.182;2023-08-17T11:07:02;15.40;99.90
20803;DHT22;10562;-33.856;151.182;2023-08-17T11:09:35;15.20;99.90
20803;DHT22;10562;-33.856;151.182;2023-08-17T11:12:06;15.00;99.90
20803;DHT22;10562;-33.856;151.182;2023-08-17T11:14:58;14.90;99.90
20803;DHT22;10562;-33.856;151.182;2023-08-17T11:17:29;14.80;99.90
20803;DHT22;10562;-33.856;151.182;2023-08-17T11:20:02;14.70;99.90
20803;DHT22;10562;-33.856;151.182;2023-08-17T11:22:34;14.60;99.90
20803;DHT22;10562;-33.856;151.182;2023-08-17T11:25:05;14.60;99.90
20803;DHT22;10562;-33.856;151.182;2023-08-17T11:27:37;14.60;99.90
20803;DHT22;10562;-33.856;151.182;2023-08-17T11:30:08;14.50;99.90
20803;DHT22;10562;-33.856;151.182;2023-08-17T11:32:39;14.50;99.90
20803;DHT22;10562;-33.856;151.182;2023-08-17T11:35:12;14.40;99.90
20803;DHT22;10562;-33.856;151.182;2023-08-17T11:37:42;14.40;99.90
20803;DHT22;10562;-33.856;151.182;2023-08-17T11:40:13;14.40;99.90
20803;DHT22;10562;-33.856;151.182;2023-08-17T11:42:45;14.30;99.90
20803;DHT22;10562;-33.856;151.182;2023-08-17T11:45:16;14.30;99.90
20803;DHT22;10562;-33.856;151.182;2023-08-17T11:47:48;14.20;99.90
20803;DHT22;10562;-33.856;151.182;2023-08-17T11:50:21;14.20;99.90
20803;DHT22;10562;-33.856;151.182;2023-08-17T11:52:52;14.20;99.90
20803;DHT22;10562;-33.856;151.182;2023-08-17T11:55:22;14.20;99.90
20803;DHT22;10562;-33.856;151.182;2023-08-17T11:57:53;14.10;99.90
20803;DHT22;10562;-33.856;151.182;2023-08-17T12:00:24;14.10;99.90
20803;DHT22;10562;-33.856;151.182;2023-08-17T12:02:55;14.10;99.90
20803;DHT22;10562;-33.856;151.182;2023-08-17T12:05:28;14.10;99.90
20803;DHT22;10562;-33.856;151.182;2023-08-17T12:08:01;14.10;99.90
20803;DHT22;10562;-33.856;151.182;2023-08-17T12:10:32;14.10;99.90
20803;DHT22;10562;-33.856;151.182;2023-08-17T12:13:03;14.10;99.90
20803;DHT22;10562;-33.856;151.182;2023-08-17T12:15:34;14.20;99.90
20803;DHT22;10562;-33.856;151.182;2023-08-17T12:18:05;14.20;99.90
20803;DHT22;10562;-33.856;151.182;2023-08-17T12:20:38;14.20;99.90
20803;DHT22;10562;-33.856;151.182;2023-08-17T12:23:10;14.20;99.90
20803;DHT22;10562;-33.856;151.182;2023-08-17T12:25:41;14.00;99.90
20803;DHT22;10562;-33.856;151.182;2023-08-17T12:28:14;14.00;99.90
20803;DHT22;10562;-33.856;151.182;2023-08-17T12:30:45;13.90;99.90
20803;DHT22;10562;-33.856;151.182;2023-08-17T12:33:15;13.90;99.90
20803;DHT22;10562;-33.856;151.182;2023-08-17T12:35:48;13.80;99.90
20803;DHT22;10562;-33.856;151.182;2023-08-17T12:38:19;13.80;99.90
20803;DHT22;10562;-33.856;151.182;2023-08-17T12:40:50;13.70;99.90
20803;DHT22;10562;-33.856;151.182;2023-08-17T12:43:21;13.60;99.90
20803;DHT22;10562;-33.856;151.182;2023-08-17T12:45:52;13.60;99.90
20803;DHT22;10562;-33.856;151.182;2023-08-17T12:48:23;13.70;99.90
20803;DHT22;10562;-33.856;151.182;2023-08-17T12:50:55;13.60;99.90
20803;DHT22;10562;-33.856;151.182;2023-08-17T12:53:26;13.60;99.90
20803;DHT22;10562;-33.856;151.182;2023-08-17T12:55:57;13.60;99.90
20803;DHT22;10562;-33.856;151.182;2023-08-17T12:58:28;13.60;99.90
20803;DHT22;10562;-33.856;151.182;2023-08-17T13:00:59;13.60;99.90
20803;DHT22;10562;-33.856;151.182;2023-08-17T13:03:29;13.60;99.90
20803;DHT22;10562;-33.856;151.182;2023-08-17T13:06:02;13.60;99.90
20803;DHT22;10562;-33.856;151.182;2023-08-17T13:08:33;13.60;99.90
20803;DHT22;10562;-33.856;151.182;2023-08-17T13:11:04;13.60;99.90
20803;DHT22;10562;-33.856;151.182;2023-08-17T13:13:34;13.60;99.90
20803;DHT22;10562;-33.856;151.182;2023-08-17T13:16:05;13.50;99.90
20803;DHT22;10562;-33.856;151.182;2023-08-17T13:18:36;13.50;99.90
20803;DHT22;10562;-33.856;151.182;2023-08-17T13:21:08;13.40;99.90
20803;DHT22;10562;-33.856;151.182;2023-08-17T13:23:43;13.30;99.90
20803;DHT22;10562;-33.856;151.182;2023-08-17T13:26:14;13.30;99.90
20803;DHT22;10562;-33.856;151.182;2023-08-17T13:28:45;13.20;99.90
20803;DHT22;10562;-33.856;151.182;2023-08-17T13:31:15;13.30;99.90
20803;DHT22;10562;-33.856;151.182;2023-08-17T13:33:46;13.20;99.90
20803;DHT22;10562;-33.856;151.182;2023-08-17T13:36:19;13.20;99.90
20803;DHT22;10562;-33.856;151.182;2023-08-17T13:38:50;13.20;99.90
20803;DHT22;10562;-33.856;151.182;2023-08-17T13:41:20;13.20;99.90
20803;DHT22;10562;-33.856;151.182;2023-08-17T13:43:52;13.20;99.90
20803;DHT22;10562;-33.856;151.182;2023-08-17T13:46:25;13.20;99.90
20803;DHT22;10562;-33.856;151.182;2023-08-17T13:48:55;13.20;99.90
20803;DHT22;10562;-33.856;151.182;2023-08-17T13:51:28;13.30;99.90
20803;DHT22;10562;-33.856;151.182;2023-08-17T13:53:59;13.20;99.90
20803;DHT22;10562;-33.856;151.182;2023-08-17T13:56:30;13.20;99.90
20803;DHT22;10562;-33.856;151.182;2023-08-17T13:59:00;13.20;99.90
20803;DHT22;10562;-33.856;151.182;2023-08-17T14:01:31;13.20;99.90
20803;DHT22;10562;-33.856;151.182;2023-08-17T14:04:02;13.20;99.90
20803;DHT22;10562;-33.856;151.182;2023-08-17T14:06:36;13.20;99.90
20803;DHT22;10562;-33.856;151.182;2023-08-17T14:09:07;13.20;99.90
20803;DHT22;10562;-33.856;151.182;2023-08-17T14:11:37;13.20;99.90
20803;DHT22;10562;-33.856;151.182;2023-08-17T14:14:08;13.20;99.90
20803;DHT22;10562;-33.856;151.182;2023-08-17T14:16:39;13.10;99.90
20803;DHT22;10562;-33.856;151.182;2023-08-17T14:19:10;13.10;99.90
20803;DHT22;10562;-33.856;151.182;2023-08-17T14:21:42;13.10;99.90
20803;DHT22;10562;-33.856;151.182;2023-08-17T14:24:13;13.00;99.90
20803;DHT22;10562;-33.856;151.182;2023-08-17T14:26:44;13.00;99.90
20803;DHT22;10562;-33.856;151.182;2023-08-17T14:29:15;13.00;99.90
20803;DHT22;10562;-33.856;151.182;2023-08-17T14:31:45;13.00;99.90
20803;DHT22;10562;-33.856;151.182;2023-08-17T14:34:16;13.00;99.90
20803;DHT22;10562;-33.856;151.182;2023-08-17T14:36:49;12.90;99.90
20803;DHT22;10562;-33.856;151.182;2023-08-17T14:39:20;12.90;99.90
20803;DHT22;10562;-33.856;151.182;2023-08-17T14:41:50;13.00;99.90
20803;DHT22;10562;-33.856;151.182;2023-08-17T14:44:21;13.00;99.90
20803;DHT22;10562;-33.856;151.182;2023-08-17T14:46:52;13.10;99.90
20803;DHT22;10562;-33.856;151.182;2023-08-17T14:49:23;13.10;99.90
20803;DHT22;10562;-33.856;151.182;2023-08-17T14:51:55;13.10;99.90
20803;DHT22;10562;-33.856;151.182;2023-08-17T14:54:26;13.10;99.90
20803;DHT22;10562;-33.856;151.182;2023-08-17T14:56:57;13.20;99.90
20803;DHT22;10562;-33.856;151.182;2023-08-17T14:59:28;13.20;99.90
20803;DHT22;10562;-33.856;151.182;2023-08-17T15:01:58;13.20;99.90
20803;DHT22;10562;-33.856;151.182;2023-08-17T15:04:29;13.10;99.90
20803;DHT22;10562;-33.856;151.182;2023-08-17T15:07:03;13.10;99.90
20803;DHT22;10562;-33.856;151.182;2023-08-17T15:09:38;13.10;99.90
20803;DHT22;10562;-33.856;151.182;2023-08-17T15:12:09;13.10;99.90
20803;DHT22;10562;-33.856;151.182;2023-08-17T15:14:40;13.10;99.90
20803;DHT22;10562;-33.856;151.182;2023-08-17T15:17:10;13.10;99.90